createdAt,value
2022-10-31T00:00:37.053Z,14.25
2022-10-31T00:03:22.700Z,12.80
2022-10-31T00:06:08.400Z,13.07
2022-10-31T00:08:56.480Z,12.88
2022-10-31T00:11:41.713Z,13.15
2022-10-31T00:14:27.103Z,13.63
2022-10-31T00:17:12.377Z,14.27
2022-10-31T00:19:58.023Z,15.35
2022-10-31T00:22:43.172Z,15.85
2022-10-31T00:25:30.612Z,15.77
2022-10-31T00:28:16.365Z,17.05
2022-10-31T00:31:07.496Z,16.95
2022-10-31T00:33:52.992Z,14.77
2022-10-31T00:36:38.453Z,15.13
2022-10-31T00:39:23.793Z,14.63
2022-10-31T00:42:09.283Z,14.40
2022-10-31T00:44:54.791Z,14.57
2022-10-31T00:47:40.533Z,15.65
2022-10-31T00:50:26.409Z,14.70
2022-10-31T00:53:11.867Z,14.38
2022-10-31T00:55:57.219Z,14.38
2022-10-31T00:58:42.566Z,15.50
2022-10-31T01:01:28.048Z,16.35
2022-10-31T01:04:14.279Z,15.15
2022-10-31T01:06:59.621Z,14.15
2022-10-31T01:09:45.003Z,15.32
2022-10-31T01:12:30.674Z,15.15
2022-10-31T01:15:22.300Z,14.40
2022-10-31T01:18:08.052Z,14.25
2022-10-31T01:21:01.383Z,14.27
2022-10-31T01:23:47.224Z,14.52
2022-10-31T01:26:34.015Z,14.10
2022-10-31T01:29:19.637Z,13.93
2022-10-31T01:32:05.337Z,14.13
2022-10-31T01:34:50.960Z,14.20
2022-10-31T01:37:36.240Z,13.13
2022-10-31T01:40:21.643Z,13.65
2022-10-31T01:43:18.938Z,13.15
2022-10-31T01:46:04.852Z,12.55
2022-10-31T01:48:52.073Z,13.18
2022-10-31T01:51:43.319Z,13.75
2022-10-31T01:54:40.489Z,13.45
2022-10-31T01:57:27.396Z,12.32
2022-10-31T02:00:13.981Z,12.77
2022-10-31T02:03:01.066Z,12.80
2022-10-31T02:05:47.552Z,12.82
2022-10-31T02:08:36.204Z,13.73
2022-10-31T02:11:21.999Z,13.00
2022-10-31T02:14:07.837Z,13.73
2022-10-31T02:16:55.021Z,13.80
2022-10-31T02:19:41.680Z,14.25
2022-10-31T02:22:58.011Z,13.52
2022-10-31T02:25:53.213Z,12.98
2022-10-31T02:29:06.524Z,11.52
2022-10-31T02:32:01.721Z,11.53
2022-10-31T02:35:02.167Z,12.40
2022-10-31T02:38:07.902Z,12.38
2022-10-31T02:41:08.115Z,12.75
2022-10-31T02:44:14.123Z,12.23
2022-10-31T02:47:07.763Z,12.77
2022-10-31T02:50:09.979Z,13.02
2022-10-31T02:52:57.411Z,13.88
2022-10-31T02:55:59.478Z,14.02
2022-10-31T02:58:54.570Z,13.90
2022-10-31T03:02:05.519Z,14.23
2022-10-31T03:05:12.729Z,14.13
2022-10-31T03:08:14.105Z,14.07
2022-10-31T03:11:10.718Z,13.75
2022-10-31T03:14:22.597Z,13.57
2022-10-31T03:17:26.090Z,15.40
2022-10-31T03:20:12.132Z,14.95
2022-10-31T03:22:59.443Z,14.93
2022-10-31T03:25:47.528Z,14.90
2022-10-31T03:28:51.256Z,14.88
2022-10-31T03:31:46.144Z,14.52
2022-10-31T03:34:34.437Z,14.85
2022-10-31T03:37:22.035Z,14.40
2022-10-31T03:40:10.587Z,14.40
2022-10-31T03:43:01.961Z,14.68
2022-10-31T03:45:48.402Z,15.03
2022-10-31T03:48:34.477Z,15.40
2022-10-31T03:51:29.235Z,15.18
2022-10-31T03:54:19.559Z,16.17
2022-10-31T03:57:38.349Z,16.38
2022-10-31T04:00:24.883Z,15.38
2022-10-31T04:03:20.114Z,16.02
2022-10-31T04:06:12.377Z,16.25
2022-10-31T04:09:03.308Z,15.65
2022-10-31T04:11:55.210Z,15.07
2022-10-31T04:15:04.620Z,15.65
2022-10-31T04:17:53.427Z,15.40
2022-10-31T04:20:41.727Z,15.38
2022-10-31T04:23:28.170Z,15.82
2022-10-31T04:26:14.124Z,15.48
2022-10-31T04:29:03.208Z,15.07
2022-10-31T04:31:49.389Z,15.70
2022-10-31T04:34:36.354Z,15.23
2022-10-31T04:37:23.432Z,17.63
2022-10-31T04:40:09.404Z,15.18
2022-10-31T04:43:13.805Z,14.75
2022-10-31T04:46:02.194Z,15.00
2022-10-31T04:48:47.561Z,15.05
2022-10-31T04:51:33.074Z,14.52
2022-10-31T04:54:19.868Z,13.50
2022-10-31T04:57:24.412Z,15.77
2022-10-31T05:00:12.783Z,14.52
2022-10-31T05:02:59.381Z,14.80
2022-10-31T05:05:46.269Z,14.38
2022-10-31T05:08:32.192Z,15.50
2022-10-31T05:11:21.207Z,15.02
2022-10-31T05:14:06.712Z,13.93
2022-10-31T05:17:24.117Z,13.77
2022-10-31T05:20:33.058Z,16.17
2022-10-31T05:23:45.818Z,15.07
2022-10-31T05:26:34.161Z,14.85
2022-10-31T05:29:20.057Z,13.25
2022-10-31T05:32:07.421Z,16.35
2022-10-31T05:35:16.666Z,18.45
2022-10-31T05:38:25.232Z,17.52
2022-10-31T05:41:12.960Z,13.88
2022-10-31T05:44:02.810Z,14.75
2022-10-31T05:46:51.202Z,14.43
2022-10-31T05:49:43.653Z,15.27
2022-10-31T05:53:05.132Z,14.82
2022-10-31T05:55:55.458Z,15.90
2022-10-31T05:58:43.549Z,15.35
2022-10-31T06:01:29.025Z,16.02
2022-10-31T06:04:16.925Z,16.23
2022-10-31T06:07:02.464Z,15.48
2022-10-31T06:09:48.082Z,15.25
2022-10-31T06:12:38.630Z,14.50
2022-10-31T06:15:53.936Z,13.70
2022-10-31T06:18:43.021Z,13.65
2022-10-31T06:21:28.436Z,14.13
2022-10-31T06:24:14.353Z,13.27
2022-10-31T06:27:18.244Z,13.02
2022-10-31T06:30:04.594Z,15.07
2022-10-31T06:32:51.804Z,15.35
2022-10-31T06:35:39.210Z,15.43
2022-10-31T06:38:26.155Z,13.75
2022-10-31T06:41:12.406Z,13.45
2022-10-31T06:44:06.521Z,13.55
2022-10-31T06:47:13.399Z,11.98
2022-10-31T06:50:37.894Z,11.35
2022-10-31T06:53:23.760Z,11.32
2022-10-31T06:56:09.557Z,12.68
2022-10-31T06:59:00.760Z,11.30
2022-10-31T07:02:12.917Z,13.45
2022-10-31T07:05:01.322Z,11.98
2022-10-31T07:07:47.008Z,12.02
2022-10-31T07:10:37.436Z,11.63
2022-10-31T07:13:26.943Z,11.85
2022-10-31T07:16:20.767Z,12.48
2022-10-31T07:19:06.163Z,12.07
2022-10-31T07:21:53.152Z,12.10
2022-10-31T07:24:39.274Z,11.43
2022-10-31T07:27:44.156Z,10.43
2022-10-31T07:30:31.645Z,11.65
2022-10-31T07:33:18.174Z,11.95
2022-10-31T07:36:23.866Z,10.80
2022-10-31T07:39:13.395Z,11.10
2022-10-31T07:42:00.782Z,10.57
2022-10-31T07:44:51.498Z,11.65
2022-10-31T07:48:18.166Z,11.30
2022-10-31T07:51:22.496Z,10.48
2022-10-31T07:54:27.029Z,10.55
2022-10-31T07:57:12.803Z,12.75
2022-10-31T07:59:58.246Z,11.90
2022-10-31T08:02:43.922Z,12.05
2022-10-31T08:05:49.687Z,12.57
2022-10-31T08:08:48.659Z,11.93
2022-10-31T08:11:34.223Z,11.93
2022-10-31T08:14:21.219Z,12.13
2022-10-31T08:17:06.764Z,13.27
2022-10-31T08:20:01.119Z,16.63
2022-10-31T08:23:02.372Z,13.40
2022-10-31T08:25:49.047Z,10.60
2022-10-31T08:28:34.359Z,10.60
2022-10-31T08:31:23.919Z,11.68
2022-10-31T08:34:36.095Z,11.05
2022-10-31T08:37:58.136Z,12.63
2022-10-31T08:40:49.524Z,11.05
2022-10-31T08:43:35.287Z,15.65
2022-10-31T08:46:21.634Z,10.10
2022-10-31T08:49:07.435Z,12.10
2022-10-31T08:51:53.731Z,10.93
2022-10-31T08:54:40.001Z,10.68
2022-10-31T08:57:44.226Z,11.73
2022-10-31T09:00:31.443Z,9.20
2022-10-31T09:03:25.847Z,9.40
2022-10-31T09:08:58.741Z,8.88
2022-10-31T09:11:44.939Z,9.27
2022-10-31T09:14:30.336Z,9.82
2022-10-31T09:17:49.469Z,9.77
2022-10-31T09:21:01.887Z,9.48
2022-10-31T09:23:49.604Z,9.13
2022-10-31T09:26:34.999Z,9.70
2022-10-31T09:29:29.616Z,10.00
2022-10-31T09:32:18.658Z,10.00
2022-10-31T09:35:06.088Z,10.10
2022-10-31T09:38:04.093Z,8.98
2022-10-31T09:40:52.868Z,9.32
2022-10-31T09:43:38.454Z,10.68
2022-10-31T09:46:30.868Z,8.60
2022-10-31T09:49:42.479Z,7.78
2022-10-31T09:52:34.134Z,8.80
2022-10-31T09:55:45.562Z,9.02
2022-10-31T09:58:36.729Z,7.82
2022-10-31T10:01:30.179Z,9.07
2022-10-31T10:04:31.519Z,7.60
2022-10-31T10:07:31.573Z,9.20
2022-10-31T10:10:42.391Z,8.32
2022-10-31T10:14:08.120Z,7.57
2022-10-31T10:17:08.468Z,8.35
2022-10-31T10:20:12.823Z,8.75
2022-10-31T10:23:34.169Z,8.35
2022-10-31T10:26:22.607Z,7.73
2022-10-31T10:29:24.411Z,8.93
2022-10-31T10:32:18.956Z,8.45
2022-10-31T10:35:25.694Z,8.10
2022-10-31T10:38:24.998Z,8.05
2022-10-31T10:41:18.032Z,8.32
2022-10-31T10:44:09.694Z,8.13
2022-10-31T10:47:19.979Z,8.68
2022-10-31T10:50:20.301Z,7.38
2022-10-31T10:53:33.077Z,8.20
2022-10-31T10:56:31.575Z,7.70
2022-10-31T10:59:20.874Z,7.72
2022-10-31T11:02:28.033Z,8.18
2022-10-31T11:05:41.917Z,6.93
2022-10-31T11:08:29.709Z,7.50
2022-10-31T11:11:18.136Z,7.25
2022-10-31T11:14:12.425Z,7.45
2022-10-31T11:17:32.505Z,7.15
2022-10-31T11:20:35.435Z,7.00
2022-10-31T11:23:23.126Z,6.68
2022-10-31T11:26:20.998Z,7.18
2022-10-31T11:29:15.365Z,6.53
2022-10-31T11:32:01.807Z,6.93
2022-10-31T11:34:52.452Z,7.25
2022-10-31T11:37:44.346Z,6.13
2022-10-31T11:40:30.116Z,6.82
2022-10-31T11:43:18.763Z,6.03
2022-10-31T11:46:19.919Z,6.43
2022-10-31T11:49:06.277Z,5.82
2022-10-31T11:51:55.253Z,6.88
2022-10-31T11:54:47.092Z,5.65
2022-10-31T11:57:42.964Z,5.95
2022-10-31T12:00:34.496Z,5.60
2022-10-31T12:03:22.832Z,6.00
2022-10-31T12:06:14.508Z,5.60
2022-10-31T12:09:00.792Z,7.55
2022-10-31T12:12:30.751Z,7.10
2022-10-31T12:15:35.103Z,5.97
2022-10-31T12:18:26.735Z,6.55
2022-10-31T12:21:42.415Z,7.57
2022-10-31T12:25:10.217Z,6.18
2022-10-31T12:28:35.100Z,5.60
2022-10-31T12:31:56.230Z,6.45
2022-10-31T12:34:48.784Z,6.10
2022-10-31T12:38:05.168Z,5.55
2022-10-31T12:41:00.299Z,6.10
2022-10-31T12:44:13.630Z,5.68
2022-10-31T12:47:21.673Z,5.68
2022-10-31T12:50:32.511Z,6.07
2022-10-31T12:53:37.123Z,6.80
2022-10-31T12:56:41.531Z,6.15
2022-10-31T12:59:41.127Z,4.90
2022-10-31T13:02:40.055Z,6.95
2022-10-31T13:05:34.808Z,6.85
2022-10-31T13:08:25.426Z,7.78
2022-10-31T13:11:14.020Z,9.20
2022-10-31T13:14:08.424Z,7.53
2022-10-31T13:16:56.406Z,6.55
2022-10-31T13:19:45.870Z,6.72
2022-10-31T13:22:36.733Z,7.15
2022-10-31T13:25:39.104Z,7.28
2022-10-31T13:28:39.917Z,7.07
2022-10-31T13:31:26.155Z,5.97
2022-10-31T13:34:43.584Z,7.10
2022-10-31T13:37:34.973Z,7.07
2022-10-31T13:40:36.037Z,6.47
2022-10-31T13:43:26.900Z,7.35
2022-10-31T13:46:35.175Z,8.30
2022-10-31T13:49:30.018Z,6.90
2022-10-31T13:52:27.164Z,7.28
2022-10-31T13:55:40.122Z,7.40
2022-10-31T13:58:31.501Z,6.32
2022-10-31T14:01:20.902Z,7.57
2022-10-31T14:04:19.321Z,7.90
2022-10-31T14:07:18.419Z,7.63
2022-10-31T14:10:26.603Z,7.40
2022-10-31T14:13:38.290Z,8.82
2022-10-31T14:16:29.028Z,10.20
2022-10-31T14:19:19.020Z,8.63
2022-10-31T14:22:04.652Z,8.30
2022-10-31T14:24:50.343Z,9.77
2022-10-31T14:27:46.522Z,8.93
2022-10-31T14:30:32.485Z,9.25
2022-10-31T14:33:20.871Z,8.30
2022-10-31T14:36:26.641Z,8.00
2022-10-31T14:39:25.238Z,8.50
2022-10-31T14:42:30.474Z,7.80
2022-10-31T14:45:22.208Z,7.97
2022-10-31T14:48:37.944Z,7.47
2022-10-31T14:51:27.826Z,7.20
2022-10-31T14:54:19.388Z,7.60
2022-10-31T17:09:57.731Z,12.40
2022-10-31T17:12:45.954Z,11.27
2022-10-31T17:15:44.898Z,10.50
2022-10-31T17:18:31.044Z,10.25
2022-10-31T17:21:20.813Z,9.50
2022-10-31T17:24:07.263Z,11.75
2022-10-31T17:26:52.569Z,12.68
2022-10-31T17:29:38.063Z,12.40
2022-10-31T17:32:23.657Z,13.02
2022-10-31T17:35:10.289Z,17.15
2022-10-31T17:37:55.704Z,22.23
2022-10-31T17:40:44.643Z,12.63
2022-10-31T17:43:30.846Z,10.95
2022-10-31T17:46:17.595Z,9.80
2022-10-31T17:49:06.988Z,10.27
2022-10-31T17:51:52.850Z,11.82
2022-10-31T17:54:38.483Z,12.85
2022-10-31T17:57:24.058Z,22.50
2022-10-31T18:00:13.074Z,15.93
2022-10-31T18:02:59.108Z,15.23
2022-10-31T18:05:58.273Z,11.52
2022-10-31T18:08:44.554Z,10.20
2022-10-31T18:11:30.385Z,10.70
2022-10-31T18:14:21.525Z,15.15
2022-10-31T18:17:09.606Z,10.10
2022-10-31T18:19:55.044Z,8.70
2022-10-31T18:22:40.543Z,8.43
2022-10-31T18:25:48.888Z,8.30
2022-10-31T18:28:37.199Z,8.60
2022-10-31T18:31:22.812Z,10.20
2022-10-31T18:34:08.578Z,10.38
2022-10-31T18:36:53.965Z,11.98
2022-10-31T18:39:39.867Z,16.25
2022-10-31T18:42:25.143Z,22.58
2022-10-31T18:45:23.945Z,23.55
2022-10-31T18:48:17.410Z,25.77
2022-10-31T18:51:08.493Z,22.48
2022-10-31T18:54:00.281Z,23.73
2022-10-31T18:56:46.337Z,22.70
2022-10-31T18:59:33.999Z,21.42
2022-10-31T19:02:21.025Z,21.30
2022-10-31T19:05:07.044Z,17.55
2022-10-31T19:07:54.148Z,14.93
2022-10-31T19:10:40.771Z,15.25
2022-10-31T19:13:25.957Z,18.38
2022-10-31T19:16:15.534Z,17.33
2022-10-31T19:19:01.516Z,15.43
2022-10-31T19:21:47.617Z,12.73
2022-10-31T19:24:32.924Z,11.73
2022-10-31T19:27:18.809Z,10.50
2022-10-31T19:30:08.444Z,10.85
2022-10-31T19:32:55.918Z,10.95
2022-10-31T19:35:41.481Z,13.95
2022-10-31T19:38:31.336Z,12.65
2022-10-31T19:41:20.139Z,13.57
2022-10-31T19:44:05.604Z,14.18
2022-10-31T19:46:54.346Z,13.73
2022-10-31T19:49:40.155Z,20.35
2022-10-31T19:52:25.799Z,16.38
2022-10-31T19:55:11.337Z,14.38
2022-10-31T19:58:01.744Z,11.07
2022-10-31T20:00:48.924Z,15.20
2022-10-31T20:03:34.845Z,16.27
2022-10-31T20:06:25.178Z,27.50
2022-10-31T20:09:14.061Z,33.05
2022-10-31T20:11:59.331Z,13.70
2022-10-31T20:14:45.055Z,9.25
2022-10-31T20:17:30.461Z,7.53
2022-10-31T20:20:16.098Z,8.18
2022-10-31T20:23:02.172Z,7.78
2022-10-31T20:25:49.513Z,6.90
2022-10-31T20:28:38.830Z,6.72
2022-10-31T20:34:15.527Z,6.72
2022-10-31T20:37:01.410Z,7.88
2022-10-31T20:39:46.808Z,11.48
2022-10-31T20:42:32.514Z,13.98
2022-10-31T20:45:17.879Z,10.63
2022-10-31T20:48:04.570Z,9.52
2022-10-31T20:50:50.479Z,12.85
2022-10-31T20:53:35.751Z,13.07
2022-10-31T20:56:23.621Z,12.38
2022-10-31T20:59:09.638Z,9.75
2022-10-31T21:01:55.387Z,9.57
2022-10-31T21:04:40.986Z,9.18
2022-10-31T21:07:26.204Z,9.20
2022-10-31T21:10:17.566Z,10.93
2022-10-31T21:13:04.494Z,11.65
2022-10-31T21:16:05.430Z,8.65
2022-10-31T21:18:51.842Z,8.98
2022-10-31T21:21:37.788Z,9.82
2022-10-31T21:24:23.259Z,11.93
2022-10-31T21:27:11.655Z,12.95
2022-10-31T21:29:58.519Z,15.85
2022-10-31T21:32:43.916Z,12.52
2022-10-31T21:35:29.515Z,26.58
2022-10-31T21:38:14.896Z,53.75
2022-10-31T21:41:05.379Z,46.10
2022-10-31T21:43:54.224Z,55.78
2022-10-31T21:46:40.010Z,48.90
2022-10-31T21:49:25.651Z,27.33
2022-10-31T21:52:11.150Z,29.02
2022-10-31T21:54:56.998Z,22.73
2022-10-31T21:57:42.600Z,35.65
2022-10-31T22:00:28.208Z,28.63
2022-10-31T22:03:13.410Z,32.90
2022-10-31T22:06:03.007Z,35.28
2022-10-31T22:08:48.831Z,25.95
2022-10-31T22:11:35.135Z,15.85
2022-10-31T22:14:20.837Z,12.30
2022-10-31T22:17:06.566Z,13.20
2022-10-31T22:19:52.538Z,14.20
2022-10-31T22:22:37.914Z,12.98
2022-10-31T22:25:24.500Z,12.63
2022-10-31T22:28:09.720Z,11.90
2022-10-31T22:30:55.620Z,14.23
2022-10-31T22:33:41.196Z,15.00
2022-10-31T22:36:28.562Z,13.70
2022-10-31T22:39:14.266Z,16.55
2022-10-31T22:42:00.036Z,17.80
2022-10-31T22:44:45.226Z,27.67
2022-10-31T22:47:31.132Z,32.30
2022-10-31T22:50:16.370Z,25.58
2022-10-31T22:53:01.766Z,25.45
2022-10-31T22:55:50.065Z,27.10
2022-10-31T22:58:35.905Z,28.05
2022-10-31T23:01:26.977Z,26.42
2022-10-31T23:04:13.889Z,28.83
2022-10-31T23:06:59.112Z,23.23
2022-10-31T23:09:44.912Z,20.48
2022-10-31T23:12:56.826Z,15.90
2022-10-31T23:15:42.738Z,15.63
2022-10-31T23:18:48.411Z,14.40
2022-10-31T23:21:59.562Z,12.43
2022-10-31T23:24:47.220Z,10.50
2022-10-31T23:27:32.754Z,10.25
2022-10-31T23:30:18.076Z,10.23
2022-10-31T23:33:03.668Z,15.02
2022-10-31T23:35:48.990Z,12.43
2022-10-31T23:38:35.364Z,11.57
2022-10-31T23:41:20.554Z,14.27
2022-10-31T23:44:06.255Z,14.90
2022-10-31T23:46:51.546Z,16.70
2022-10-31T23:49:36.952Z,15.10
2022-10-31T23:52:22.242Z,20.95
2022-10-31T23:55:08.085Z,11.57
2022-10-31T23:57:53.433Z,12.15
